Time;durP1;ratioP1;P1;durP2;ratioP2;P2;SDS_P1;SDS_P2;PMS_P1;PMS_P2;Temp;Humidity;BMP_temperature;BMP_pressure;BME280_temperature;BME280_humidity;BME280_pressure;Samples;Min_cycle;Max_cycle;Signal;HPM_P1;HPM_P2
2021/01/13 00:01:49;;;;;;;7.53;3.08;;;3.70;99.90;;;;;;4145790;28;20048;-70
2021/01/13 00:03:49;;;;;;;10.63;2.53;;;3.70;99.90;;;;;;4154354;28;20133;-70
2021/01/13 00:05:51;;;;;;;8.23;2.70;;;3.70;99.90;;;;;;4150628;28;20033;-70
2021/01/13 00:07:52;;;;;;;13.63;3.20;;;3.70;99.90;;;;;;4146880;28;20068;-70
2021/01/13 00:09:52;;;;;;;15.07;3.67;;;3.60;99.90;;;;;;4144534;28;20087;-70
2021/01/13 00:11:57;;;;;;;9.73;3.28;;;3.70;99.90;;;;;;4153529;28;20026;-70
2021/01/13 00:13:58;;;;;;;9.80;2.88;;;3.60;99.90;;;;;;4148016;28;20038;-70
2021/01/13 00:15:59;;;;;;;9.95;2.85;;;3.60;99.90;;;;;;4151584;28;20129;-70
2021/01/13 00:17:59;;;;;;;10.20;3.03;;;3.60;99.90;;;;;;4139728;28;20489;-70
2021/01/13 00:20:00;;;;;;;12.23;2.80;;;3.60;99.90;;;;;;4124946;28;20089;-70
2021/01/13 00:22:01;;;;;;;12.85;3.38;;;3.50;99.90;;;;;;4149056;28;20491;-70
2021/01/13 00:24:02;;;;;;;8.73;2.90;;;3.60;99.90;;;;;;4144549;28;20052;-70
2021/01/13 00:26:03;;;;;;;7.82;2.80;;;3.50;99.90;;;;;;4147135;28;20079;-69
2021/01/13 00:28:04;;;;;;;9.60;2.70;;;3.50;99.90;;;;;;4146315;28;20571;-70
2021/01/13 00:30:05;;;;;;;11.57;3.40;;;3.50;99.90;;;;;;4150477;28;20049;-70
2021/01/13 00:32:06;;;;;;;8.32;2.40;;;3.50;99.90;;;;;;4147217;28;20160;-70
2021/01/13 00:34:11;;;;;;;10.45;2.92;;;3.50;99.90;;;;;;4143885;28;20648;-70
2021/01/13 00:36:26;;;;;;;10.00;3.10;;;3.50;99.90;;;;;;4145725;28;20144;-70
2021/01/13 00:38:27;;;;;;;10.18;2.83;;;3.50;99.90;;;;;;4138639;28;20046;-70
2021/01/13 00:40:27;;;;;;;10.27;3.05;;;3.50;99.90;;;;;;4145873;28;20049;-70
2021/01/13 00:42:28;;;;;;;9.75;2.80;;;3.50;99.90;;;;;;4143683;28;20046;-70
2021/01/13 00:44:28;;;;;;;7.50;2.50;;;3.50;99.90;;;;;;4150475;28;20351;-70
2021/01/13 00:46:35;;;;;;;11.15;3.00;;;3.50;99.90;;;;;;4152413;28;20040;-70
2021/01/13 00:48:36;;;;;;;7.07;2.88;;;3.50;99.90;;;;;;4148455;28;20049;-70
2021/01/13 00:50:37;;;;;;;13.65;3.05;;;3.50;99.90;;;;;;4135087;28;20140;-70
2021/01/13 00:52:37;;;;;;;12.57;3.00;;;3.50;99.90;;;;;;4138475;28;20037;-70
2021/01/13 00:54:38;;;;;;;9.68;3.10;;;3.50;99.90;;;;;;4150416;28;20070;-70
2021/01/13 00:56:41;;;;;;;7.57;2.63;;;3.50;99.90;;;;;;4142529;28;20125;-70
2021/01/13 00:58:42;;;;;;;8.70;3.60;;;3.50;99.90;;;;;;4145120;28;20607;-70
2021/01/13 01:00:43;;;;;;;8.73;3.45;;;3.50;99.90;;;;;;4145513;28;20030;-70
2021/01/13 01:02:43;;;;;;;14.63;3.22;;;3.50;99.90;;;;;;4150756;28;20048;-70
2021/01/13 01:04:44;;;;;;;12.75;2.80;;;3.50;99.90;;;;;;4143679;28;20030;-70
2021/01/13 01:06:48;;;;;;;11.40;3.65;;;3.50;99.90;;;;;;4144727;28;20117;-70
2021/01/13 01:08:51;;;;;;;10.05;2.97;;;3.50;99.90;;;;;;4149246;28;20037;-70
2021/01/13 01:10:53;;;;;;;8.37;2.73;;;3.50;99.90;;;;;;4143743;28;20065;-70
2021/01/13 01:12:54;;;;;;;13.73;3.30;;;3.50;99.90;;;;;;4155711;28;20153;-70
2021/01/13 01:14:54;;;;;;;8.07;3.15;;;3.50;99.90;;;;;;4145324;28;20121;-70
2021/01/13 01:16:55;;;;;;;8.30;3.00;;;3.50;99.90;;;;;;4143059;28;20041;-70
2021/01/13 01:18:56;;;;;;;11.00;3.42;;;3.40;99.90;;;;;;4144167;28;20840;-70
2021/01/13 01:20:56;;;;;;;13.73;3.10;;;3.40;99.90;;;;;;4129926;28;21466;-70
2021/01/13 01:22:59;;;;;;;7.78;2.85;;;3.40;99.90;;;;;;4143921;28;20038;-70
2021/01/13 01:25:00;;;;;;;9.68;3.10;;;3.40;99.90;;;;;;4143254;28;20064;-70
2021/01/13 01:27:00;;;;;;;14.82;3.38;;;3.40;99.90;;;;;;4143164;28;20466;-70
2021/01/13 01:29:01;;;;;;;7.45;3.05;;;3.40;99.90;;;;;;4144466;28;20689;-70
2021/01/13 01:31:02;;;;;;;9.88;3.28;;;3.40;99.90;;;;;;4149201;28;20045;-70
2021/01/13 01:33:03;;;;;;;9.98;2.90;;;3.30;99.90;;;;;;4152945;28;20033;-70
2021/01/13 01:35:04;;;;;;;9.55;3.38;;;3.40;99.90;;;;;;4145153;28;20038;-70
2021/01/13 01:37:04;;;;;;;9.32;3.30;;;3.40;99.90;;;;;;4151979;28;20047;-70
2021/01/13 01:39:05;;;;;;;12.88;3.67;;;3.40;99.90;;;;;;4148365;28;20037;-70
2021/01/13 01:41:07;;;;;;;13.60;2.85;;;3.30;99.90;;;;;;4144775;28;20041;-70
2021/01/13 01:43:08;;;;;;;9.90;2.95;;;3.30;99.90;;;;;;4139729;28;20122;-70
2021/01/13 01:45:10;;;;;;;13.13;4.10;;;3.30;99.90;;;;;;4144632;28;20044;-70
2021/01/13 01:47:13;;;;;;;12.20;3.53;;;3.30;99.90;;;;;;4145911;28;20045;-70
2021/01/13 01:49:15;;;;;;;13.82;3.63;;;3.30;99.90;;;;;;4145745;28;20080;-70
2021/01/13 01:51:41;;;;;;;12.43;3.10;;;3.30;99.90;;;;;;4142736;28;20160;-70
2021/01/13 01:54:16;;;;;;;13.95;3.13;;;3.30;99.90;;;;;;4134423;28;20493;-70
2021/01/13 01:56:27;;;;;;;9.38;3.28;;;3.30;99.90;;;;;;4133335;28;20034;-70
2021/01/13 01:58:29;;;;;;;7.07;3.22;;;3.30;99.90;;;;;;4134062;28;20038;-70
2021/01/13 02:00:31;;;;;;;10.80;3.45;;;3.30;99.90;;;;;;4132792;28;20044;-70
2021/01/13 02:02:38;;;;;;;8.57;3.05;;;3.30;99.90;;;;;;4128514;28;20066;-70
2021/01/13 02:04:43;;;;;;;9.88;3.20;;;3.30;99.90;;;;;;4142639;28;20037;-69
2021/01/13 02:07:09;;;;;;;10.82;3.35;;;3.30;99.90;;;;;;4126774;28;20089;-69
2021/01/13 02:09:10;;;;;;;8.82;2.53;;;3.30;99.90;;;;;;4142915;28;20033;-69
2021/01/13 02:11:18;;;;;;;8.45;2.60;;;3.20;99.90;;;;;;4131438;28;20041;-70
2021/01/13 02:13:19;;;;;;;6.75;2.75;;;3.20;99.90;;;;;;4137297;28;20038;-69
2021/01/13 02:15:20;;;;;;;15.90;3.20;;;3.20;99.90;;;;;;4132750;28;20041;-69
2021/01/13 02:17:37;;;;;;;10.38;3.33;;;3.30;99.90;;;;;;4136826;28;20479;-69
2021/01/13 02:20:02;;;;;;;11.57;3.63;;;3.30;99.90;;;;;;4136846;28;20038;-69
2021/01/13 02:22:03;;;;;;;7.90;3.20;;;3.20;99.90;;;;;;4125132;28;20228;-69
2021/01/13 02:24:10;;;;;;;15.70;3.72;;;3.20;99.90;;;;;;4124075;28;20085;-70
2021/01/13 02:26:54;;;;;;;7.75;2.63;;;3.20;99.90;;;;;;4124297;28;20606;-69
2021/01/13 02:29:09;;;;;;;11.45;3.17;;;3.20;99.90;;;;;;4118760;28;20541;-70
2021/01/13 02:31:49;;;;;;;9.50;2.90;;;3.20;99.90;;;;;;4130610;28;20038;-69
2021/01/13 02:34:08;;;;;;;10.82;3.03;;;3.20;99.90;;;;;;4144031;28;20501;-69
2021/01/13 02:36:27;;;;;;;10.07;3.13;;;3.20;99.90;;;;;;4127984;28;20093;-69
2021/01/13 02:38:32;;;;;;;9.73;3.03;;;3.20;99.90;;;;;;4127892;28;20048;-70
2021/01/13 02:40:33;;;;;;;8.25;3.00;;;3.20;99.90;;;;;;4125723;28;20039;-70
2021/01/13 02:42:45;;;;;;;11.70;3.30;;;3.20;99.90;;;;;;4128120;28;20166;-70
2021/01/13 02:45:03;;;;;;;13.27;3.13;;;3.20;99.90;;;;;;4122742;28;20030;-69
2021/01/13 02:47:07;;;;;;;12.52;3.08;;;3.20;99.90;;;;;;4117043;28;20074;-69
2021/01/13 02:49:08;;;;;;;6.90;2.95;;;3.20;99.90;;;;;;4140926;28;20037;-69
2021/01/13 02:51:24;;;;;;;14.00;3.13;;;3.20;99.90;;;;;;4127572;28;20042;-70
2021/01/13 02:53:55;;;;;;;6.57;2.92;;;3.20;99.90;;;;;;4127041;28;20125;-69
2021/01/13 02:55:55;;;;;;;12.02;3.60;;;3.20;99.90;;;;;;4129361;28;20041;-69
2021/01/13 02:57:57;;;;;;;9.05;3.40;;;3.20;99.90;;;;;;4130709;28;20043;-70
2021/01/13 02:59:58;;;;;;;11.57;3.17;;;3.20;99.90;;;;;;4125867;28;20038;-69
2021/01/13 03:02:04;;;;;;;11.07;3.70;;;3.20;99.90;;;;;;4132633;28;20464;-69
2021/01/13 03:04:06;;;;;;;11.13;2.70;;;3.20;99.90;;;;;;4139316;28;20112;-69
2021/01/13 03:06:08;;;;;;;7.30;3.22;;;3.20;99.90;;;;;;4136445;28;20045;-69
2021/01/13 03:08:10;;;;;;;;;;;3.20;99.90;;;;;;4130159;28;20359;-69
2021/01/13 03:10:15;;;;;;;8.65;3.22;;;3.30;99.90;;;;;;4145575;28;19917;-70
2021/01/13 03:12:24;;;;;;;11.93;3.45;;;3.30;99.90;;;;;;4133729;28;20034;-70
2021/01/13 03:14:27;;;;;;;8.55;3.03;;;3.30;99.90;;;;;;4129708;28;20073;-69
2021/01/13 03:16:30;;;;;;;10.07;3.53;;;3.30;99.90;;;;;;4135482;28;20182;-69
2021/01/13 03:18:46;;;;;;;9.38;3.00;;;3.30;99.90;;;;;;4133397;28;20437;-69
2021/01/13 03:21:19;;;;;;;11.50;3.28;;;3.30;99.90;;;;;;4130940;28;20113;-70
2021/01/13 03:23:22;;;;;;;10.50;3.70;;;3.30;99.90;;;;;;4126552;28;20601;-70
2021/01/13 03:25:25;;;;;;;11.63;3.53;;;3.30;99.90;;;;;;4134683;28;20026;-70
2021/01/13 03:27:31;;;;;;;10.00;3.88;;;3.40;99.90;;;;;;4132938;28;20038;-70
2021/01/13 03:29:34;;;;;;;7.43;2.90;;;3.30;99.90;;;;;;4132192;28;20038;-70
2021/01/13 03:32:00;;;;;;;17.65;4.32;;;3.30;99.90;;;;;;4140439;28;20088;-70
2021/01/13 03:34:14;;;;;;;9.30;3.38;;;3.30;99.90;;;;;;4132095;28;20125;-69
2021/01/13 03:36:54;;;;;;;10.82;3.80;;;3.30;99.90;;;;;;4140178;28;20046;-70
2021/01/13 03:39:06;;;;;;;13.20;3.55;;;3.30;99.90;;;;;;4129608;28;20505;-70
2021/01/13 03:41:07;;;;;;;10.95;3.50;;;3.30;99.90;;;;;;4134540;28;20129;-69
2021/01/13 03:43:19;;;;;;;13.68;3.80;;;3.40;99.90;;;;;;4133252;28;20049;-70
2021/01/13 03:45:31;;;;;;;10.47;3.80;;;3.40;99.90;;;;;;4144003;28;20030;-69
2021/01/13 03:47:40;;;;;;;13.43;4.07;;;3.40;99.90;;;;;;4130338;28;20084;-70
2021/01/13 03:49:51;;;;;;;12.13;4.38;;;3.40;99.90;;;;;;4127329;28;20038;-70
2021/01/13 03:52:04;;;;;;;12.65;3.95;;;3.40;99.90;;;;;;4130007;28;20038;-70
2021/01/13 03:54:08;;;;;;;10.13;4.10;;;3.40;99.90;;;;;;4137549;28;20037;-70
2021/01/13 03:56:17;;;;;;;10.07;3.67;;;3.40;99.90;;;;;;4133735;28;20058;-70
2021/01/13 03:58:27;;;;;;;12.23;4.40;;;3.30;99.90;;;;;;4126869;28;20050;-70
2021/01/13 04:00:45;;;;;;;11.02;4.45;;;3.40;99.90;;;;;;4128556;28;20167;-70
2021/01/13 04:03:25;;;;;;;14.10;4.40;;;3.40;99.90;;;;;;4137209;28;20112;-70
2021/01/13 04:05:40;;;;;;;13.63;4.50;;;3.40;99.90;;;;;;4143559;28;20048;-70
2021/01/13 04:07:41;;;;;;;15.18;4.80;;;3.40;99.90;;;;;;4143859;28;20113;-69
2021/01/13 04:09:43;;;;;;;12.20;4.70;;;3.40;99.90;;;;;;4145952;28;20053;-70
2021/01/13 04:11:49;;;;;;;7.97;3.75;;;3.40;99.90;;;;;;4145010;28;20391;-70
2021/01/13 04:13:54;;;;;;;14.43;5.43;;;3.40;99.90;;;;;;4110939;28;20615;-70
2021/01/13 04:15:59;;;;;;;13.13;4.18;;;3.30;99.90;;;;;;4136442;28;20047;-70
2021/01/13 04:18:03;;;;;;;14.63;4.60;;;3.40;99.90;;;;;;4140442;28;20034;-70
2021/01/13 04:20:04;;;;;;;11.73;4.60;;;3.40;99.90;;;;;;4133707;28;20074;-70
2021/01/13 04:22:05;;;;;;;13.30;4.03;;;3.40;99.90;;;;;;4129681;28;20041;-70
2021/01/13 04:24:07;;;;;;;14.70;4.65;;;3.40;99.90;;;;;;4129820;28;20483;-70
2021/01/13 04:26:08;;;;;;;11.20;4.13;;;3.40;99.90;;;;;;4132022;28;20042;-70
2021/01/13 04:28:09;;;;;;;14.70;5.03;;;3.40;99.90;;;;;;4136155;28;20438;-69
2021/01/13 04:30:11;;;;;;;10.15;4.82;;;3.40;99.90;;;;;;4131017;28;20041;-69
2021/01/13 04:32:12;;;;;;;12.20;4.82;;;3.50;99.90;;;;;;4136524;28;20340;-69
2021/01/13 04:34:13;;;;;;;11.27;4.55;;;3.40;99.90;;;;;;4128156;28;20464;-70
2021/01/13 04:36:15;;;;;;;8.32;3.45;;;3.50;99.90;;;;;;4132380;28;20072;-69
2021/01/13 04:38:22;;;;;;;;;;;3.50;99.90;;;;;;4133128;28;20084;-70
2021/01/13 04:40:23;;;;;;;14.02;5.38;;;3.50;99.90;;;;;;4129547;28;20369;-69
2021/01/13 04:42:30;;;;;;;11.82;3.72;;;3.40;99.90;;;;;;4136678;28;20054;-69
2021/01/13 04:44:42;;;;;;;11.48;4.35;;;3.50;99.90;;;;;;4135906;28;20042;-69
2021/01/13 04:46:49;;;;;;;10.60;4.55;;;3.50;99.90;;;;;;4129282;28;20731;-70
2021/01/13 04:49:05;;;;;;;11.48;4.10;;;3.50;99.90;;;;;;4133093;28;20430;-70
2021/01/13 04:51:10;;;;;;;11.65;3.72;;;3.50;99.90;;;;;;4124756;28;20156;-69
2021/01/13 04:53:17;;;;;;;12.75;3.97;;;3.50;99.90;;;;;;4130009;28;20519;-70
2021/01/13 04:55:26;;;;;;;13.45;4.50;;;3.50;99.90;;;;;;4134625;28;20041;-69
2021/01/13 04:57:45;;;;;;;10.25;3.75;;;3.50;99.90;;;;;;4134675;28;20041;-69
2021/01/13 05:00:04;;;;;;;8.52;3.25;;;3.50;99.90;;;;;;4138020;28;20072;-69
2021/01/13 05:02:09;;;;;;;13.30;3.78;;;3.60;99.90;;;;;;4147615;28;20558;-70
2021/01/13 05:04:48;;;;;;;11.63;3.72;;;3.60;99.90;;;;;;4149698;28;20117;-70
2021/01/13 05:06:50;;;;;;;12.05;4.03;;;3.60;99.90;;;;;;4130561;28;20117;-70
2021/01/13 05:09:17;;;;;;;7.75;3.33;;;3.60;99.90;;;;;;4135394;28;20053;-69
2021/01/13 05:11:20;;;;;;;14.13;3.88;;;3.60;99.90;;;;;;4149847;28;20088;-69
2021/01/13 05:13:23;;;;;;;14.35;4.05;;;3.60;99.90;;;;;;4153548;28;20064;-69
2021/01/13 05:15:23;;;;;;;16.33;4.60;;;3.70;99.90;;;;;;4134093;28;20046;-69
2021/01/13 05:17:35;;;;;;;15.13;4.93;;;3.70;99.90;;;;;;4132741;28;20134;-69
2021/01/13 05:20:07;;;;;;;15.73;5.13;;;3.60;99.90;;;;;;4119410;28;20637;-69
2021/01/13 05:22:15;;;;;;;13.57;4.03;;;3.70;99.90;;;;;;4130980;28;20298;-69
2021/01/13 05:24:20;;;;;;;10.70;4.30;;;3.70;99.90;;;;;;4130826;28;20036;-69
2021/01/13 05:26:25;;;;;;;19.75;5.60;;;3.60;99.90;;;;;;4135329;28;20037;-69
2021/01/13 05:28:26;;;;;;;18.42;5.53;;;3.60;99.90;;;;;;4135463;28;20563;-69
2021/01/13 05:30:38;;;;;;;14.73;5.00;;;3.60;99.90;;;;;;4133556;28;20080;-69
2021/01/13 05:32:40;;;;;;;11.75;4.68;;;3.60;99.90;;;;;;4135713;28;20087;-69
2021/01/13 05:34:44;;;;;;;15.32;5.60;;;3.60;99.90;;;;;;4133623;28;20034;-69
2021/01/13 05:37:24;;;;;;;15.90;4.82;;;3.60;99.90;;;;;;4135801;28;20056;-69
2021/01/13 05:39:29;;;;;;;18.42;5.63;;;3.60;99.90;;;;;;4131352;28;20064;-70
2021/01/13 05:41:30;;;;;;;11.82;5.05;;;3.60;99.90;;;;;;4114985;28;20043;-69
2021/01/13 05:43:31;;;;;;;17.13;6.55;;;3.60;99.90;;;;;;4116074;28;20034;-69
2021/01/13 05:45:36;;;;;;;18.30;5.70;;;3.60;99.90;;;;;;4133325;28;20435;-69
2021/01/13 05:47:53;;;;;;;14.07;5.45;;;3.70;99.90;;;;;;4135761;28;20034;-69
2021/01/13 05:49:58;;;;;;;18.52;6.38;;;3.70;99.90;;;;;;4127749;28;20065;-69
2021/01/13 05:52:07;;;;;;;12.07;6.05;;;3.70;99.90;;;;;;4115284;28;20031;-69
2021/01/13 05:54:15;;;;;;;20.23;6.53;;;3.70;99.90;;;;;;4130657;28;20045;-69
2021/01/13 05:56:17;;;;;;;11.52;5.35;;;3.70;99.90;;;;;;4129602;28;20597;-69
2021/01/13 05:58:26;;;;;;;17.67;5.90;;;3.70;99.90;;;;;;4131509;28;20044;-69
2021/01/13 06:00:29;;;;;;;14.50;5.95;;;3.70;99.90;;;;;;4133636;28;20108;-69
2021/01/13 06:02:40;;;;;;;16.83;5.78;;;3.70;99.90;;;;;;4132581;28;20038;-69
2021/01/13 06:04:42;;;;;;;27.08;7.30;;;3.70;99.90;;;;;;4093705;28;20463;-69
2021/01/13 06:07:05;;;;;;;14.27;6.50;;;3.80;99.90;;;;;;4130521;28;20103;-69
2021/01/13 06:09:06;;;;;;;;;;;3.80;99.90;;;;;;4136610;28;20042;-69
2021/01/13 06:11:10;;;;;;;12.00;5.68;;;3.80;99.90;;;;;;4125398;28;19910;-69
2021/01/13 06:13:17;;;;;;;13.82;5.78;;;3.80;99.90;;;;;;4126644;28;20042;-69
2021/01/13 06:15:25;;;;;;;11.25;6.00;;;3.80;99.90;;;;;;4127366;28;20034;-69
2021/01/13 06:17:29;;;;;;;11.88;5.88;;;3.80;99.90;;;;;;4127386;28;20089;-69
2021/01/13 06:19:30;;;;;;;15.63;5.55;;;3.80;99.90;;;;;;4127236;28;20091;-69
2021/01/13 06:21:34;;;;;;;11.70;5.32;;;3.80;99.90;;;;;;4124312;28;20030;-69
2021/01/13 06:23:48;;;;;;;11.40;5.03;;;3.80;99.90;;;;;;4121832;28;20038;-69
2021/01/13 06:25:53;;;;;;;14.25;5.55;;;3.80;99.90;;;;;;4135857;28;20029;-69
2021/01/13 06:28:47;;;;;;;12.70;5.47;;;3.80;99.90;;;;;;4125301;28;20072;-69
2021/01/13 06:31:00;;;;;;;13.10;4.85;;;3.80;99.90;;;;;;4139595;28;20151;-69
2021/01/13 06:33:20;;;;;;;14.10;4.97;;;3.80;99.90;;;;;;4131668;28;20034;-69
2021/01/13 06:35:48;;;;;;;17.42;5.50;;;3.80;99.90;;;;;;4127126;28;20375;-69
2021/01/13 06:37:51;;;;;;;14.90;4.88;;;3.80;99.90;;;;;;4114409;28;20100;-69
2021/01/13 06:39:57;;;;;;;13.82;5.28;;;3.80;99.90;;;;;;4096482;28;20466;-69
2021/01/13 06:41:58;;;;;;;8.77;4.47;;;3.80;99.90;;;;;;4134666;28;20120;-69
2021/01/13 06:44:01;;;;;;;12.98;5.10;;;3.70;99.90;;;;;;4138977;28;20125;-69
2021/01/13 06:46:02;;;;;;;13.80;4.90;;;3.80;99.90;;;;;;4122710;28;20122;-69
2021/01/13 06:48:04;;;;;;;11.27;4.57;;;3.70;99.90;;;;;;4120222;28;20597;-69
2021/01/13 06:50:05;;;;;;;11.35;4.53;;;3.80;99.90;;;;;;4128169;28;20134;-69
2021/01/13 06:52:09;;;;;;;16.65;5.65;;;3.70;99.90;;;;;;4120117;28;20042;-69
2021/01/13 06:54:13;;;;;;;12.02;5.07;;;3.80;99.90;;;;;;4127481;28;20431;-69
2021/01/13 06:56:15;;;;;;;17.17;4.63;;;3.70;99.90;;;;;;4125033;28;20046;-69
2021/01/13 06:58:18;;;;;;;8.80;4.25;;;3.80;99.90;;;;;;4119324;28;20499;-69
2021/01/13 07:00:20;;;;;;;17.92;5.18;;;3.80;99.90;;;;;;4135952;28;20057;-69
2021/01/13 07:02:35;;;;;;;20.02;5.35;;;3.80;99.90;;;;;;4141727;28;20034;-69
2021/01/13 07:04:48;;;;;;;14.63;5.13;;;3.70;99.90;;;;;;4138326;28;20030;-69
2021/01/13 07:07:06;;;;;;;11.52;4.47;;;3.80;99.90;;;;;;4137499;28;20573;-69
2021/01/13 07:09:09;;;;;;;8.90;4.38;;;3.80;99.90;;;;;;4149242;28;20042;-69
2021/01/13 07:11:12;;;;;;;15.43;5.57;;;3.80;99.90;;;;;;4136256;28;20034;-69
2021/01/13 07:13:15;;;;;;;16.80;5.40;;;3.80;99.90;;;;;;4135444;28;20117;-69
2021/01/13 07:15:18;;;;;;;14.68;5.40;;;3.80;99.90;;;;;;4148621;28;20112;-69
2021/01/13 07:17:21;;;;;;;18.98;5.60;;;3.70;99.90;;;;;;4137700;28;20391;-69
2021/01/13 07:19:22;;;;;;;10.95;5.00;;;3.70;99.90;;;;;;4141600;28;20034;-69
2021/01/13 07:21:38;;;;;;;12.77;5.28;;;3.70;99.90;;;;;;4139564;28;20022;-69
2021/01/13 07:23:46;;;;;;;16.27;5.72;;;3.70;99.90;;;;;;4135553;28;20483;-69
2021/01/13 07:25:51;;;;;;;19.88;5.57;;;3.70;99.90;;;;;;4142228;28;20478;-69
2021/01/13 07:27:53;;;;;;;21.63;5.88;;;3.70;99.90;;;;;;4141529;28;20034;-69
2021/01/13 07:29:54;;;;;;;15.75;4.80;;;3.70;99.90;;;;;;4141575;28;20032;-69
2021/01/13 07:31:58;;;;;;;18.17;4.25;;;3.70;99.90;;;;;;4147460;28;20024;-69
2021/01/13 07:34:32;;;;;;;13.00;4.82;;;3.70;99.90;;;;;;4138245;28;20049;-68
2021/01/13 07:36:36;;;;;;;10.38;5.40;;;3.70;99.90;;;;;;4136276;28;20061;-69
2021/01/13 07:38:43;;;;;;;14.07;5.10;;;3.70;99.90;;;;;;4139363;28;20018;-68
2021/01/13 07:40:59;;;;;;;18.88;5.70;;;3.70;99.90;;;;;;4141672;28;20033;-68
2021/01/13 07:43:11;;;;;;;13.77;4.60;;;3.70;99.90;;;;;;4140153;28;20044;-68
2021/01/13 07:45:17;;;;;;;12.73;4.72;;;3.70;99.90;;;;;;4139333;28;20474;-68
2021/01/13 07:47:50;;;;;;;14.30;5.47;;;3.70;99.90;;;;;;4140057;28;20125;-68
2021/01/13 07:50:13;;;;;;;11.07;4.40;;;3.60;99.90;;;;;;4144124;28;20418;-70
2021/01/13 07:52:17;;;;;;;15.10;5.35;;;3.70;99.90;;;;;;4136911;28;20084;-72
2021/01/13 07:54:32;;;;;;;13.88;5.22;;;3.70;99.90;;;;;;4145704;28;20048;-71
2021/01/13 07:56:36;;;;;;;19.15;5.25;;;3.70;99.90;;;;;;4145017;28;20038;-71
2021/01/13 07:58:59;;;;;;;13.13;5.60;;;3.70;99.90;;;;;;4138513;28;20050;-72
2021/01/13 08:01:44;;;;;;;17.55;6.15;;;3.80;99.90;;;;;;4144094;28;20092;-71
2021/01/13 08:04:23;;;;;;;13.20;5.63;;;3.70;99.90;;;;;;4157435;28;20034;-71
2021/01/13 08:06:34;;;;;;;22.90;7.30;;;3.70;99.90;;;;;;4141990;28;20516;-71
2021/01/13 08:09:05;;;;;;;19.77;7.18;;;3.70;99.90;;;;;;4125828;28;20033;-71
2021/01/13 08:11:09;;;;;;;11.27;5.60;;;3.70;99.90;;;;;;4142986;28;20038;-71
2021/01/13 08:13:40;;;;;;;13.45;5.85;;;3.70;99.90;;;;;;4140334;28;20046;-71
2021/01/13 08:16:08;;;;;;;23.45;10.25;;;3.80;99.90;;;;;;4147133;28;20045;-71
2021/01/13 08:19:00;;;;;;;19.90;6.93;;;3.80;99.90;;;;;;4139731;28;20614;-71
2021/01/13 08:21:56;;;;;;;14.38;6.13;;;3.70;99.90;;;;;;4132795;28;20069;-71
2021/01/13 08:23:40;;;;;;;14.45;6.97;;;3.70;99.90;;;;;;4141334;28;20046;-71
2021/01/13 08:25:52;;;;;;;15.35;5.88;;;3.80;99.90;;;;;;4141751;28;20073;-71
2021/01/13 08:27:59;;;;;;;11.73;5.78;;;3.80;99.90;;;;;;4119963;28;20741;-71
2021/01/13 08:30:02;;;;;;;18.20;6.13;;;3.80;99.90;;;;;;4144035;28;20053;-71
2021/01/13 08:32:06;;;;;;;21.98;7.88;;;3.80;99.90;;;;;;4144501;28;20038;-71
2021/01/13 08:34:09;;;;;;;14.40;6.65;;;3.90;99.90;;;;;;4136919;28;20403;-71
2021/01/13 08:36:12;;;;;;;15.07;5.72;;;3.90;99.90;;;;;;4137575;28;20046;-71
2021/01/13 08:38:13;;;;;;;14.77;6.00;;;3.90;99.90;;;;;;4143077;28;20088;-71
2021/01/13 08:40:29;;;;;;;19.00;6.47;;;4.00;99.90;;;;;;4143333;28;20445;-71
2021/01/13 08:42:30;;;;;;;11.93;5.75;;;4.00;99.90;;;;;;4146063;28;20103;-71
2021/01/13 08:44:39;;;;;;;19.15;6.45;;;4.10;99.90;;;;;;4140803;28;20042;-72
2021/01/13 08:46:44;;;;;;;19.95;6.13;;;4.10;99.90;;;;;;4131689;28;20049;-71
2021/01/13 08:48:46;;;;;;;18.55;5.68;;;4.10;99.90;;;;;;4145863;28;20034;-71
2021/01/13 08:51:08;;;;;;;21.40;7.28;;;4.20;99.90;;;;;;4145828;28;20068;-71
2021/01/13 08:53:22;;;;;;;17.00;8.00;;;4.20;99.90;;;;;;4123919;28;20105;-72
2021/01/13 08:55:23;;;;;;;17.92;6.78;;;4.20;99.90;;;;;;4137502;28;20039;-71
2021/01/13 08:57:25;;;;;;;13.35;5.75;;;4.20;99.90;;;;;;4133665;28;20046;-71
2021/01/13 08:59:37;;;;;;;17.33;6.28;;;4.20;99.90;;;;;;4142657;28;20117;-71
2021/01/13 09:01:40;;;;;;;13.43;6.05;;;4.10;99.90;;;;;;4145443;28;20187;-71
2021/01/13 09:03:43;;;;;;;13.02;5.85;;;4.10;99.90;;;;;;4133287;28;20034;-71
2021/01/13 09:05:44;;;;;;;14.52;5.43;;;4.20;99.90;;;;;;4122755;28;20030;-71
2021/01/13 09:07:45;;;;;;;21.80;6.55;;;4.10;99.90;;;;;;4126083;28;20540;-71
2021/01/13 09:10:02;;;;;;;22.50;6.50;;;4.20;99.90;;;;;;4119182;28;20057;-71
2021/01/13 09:12:26;;;;;;;9.90;5.43;;;4.20;99.90;;;;;;4129055;28;20525;-71
2021/01/13 09:14:27;;;;;;;13.23;6.00;;;4.20;99.90;;;;;;4124401;28;20022;-71
2021/01/13 09:16:32;;;;;;;16.15;6.47;;;4.20;99.90;;;;;;4133116;28;20034;-71
2021/01/13 09:18:37;;;;;;;12.50;5.28;;;4.20;99.90;;;;;;4145303;28;20026;-71
2021/01/13 09:20:38;;;;;;;13.95;6.05;;;4.20;99.90;;;;;;4132160;28;20053;-71
2021/01/13 09:22:50;;;;;;;13.40;5.47;;;4.30;99.90;;;;;;4123045;28;20110;-71
2021/01/13 09:24:58;;;;;;;11.00;5.45;;;4.30;99.90;;;;;;4125795;28;20114;-71
2021/01/13 09:27:03;;;;;;;12.25;5.20;;;4.30;99.90;;;;;;4125736;28;20038;-71
2021/01/13 09:29:10;;;;;;;13.02;5.53;;;4.40;99.90;;;;;;4124795;28;20128;-71
2021/01/13 09:31:13;;;;;;;16.85;6.22;;;4.50;99.90;;;;;;4127890;28;20041;-71
2021/01/13 09:33:14;;;;;;;17.17;5.97;;;4.70;99.90;;;;;;4126910;28;20158;-71
2021/01/13 09:35:26;;;;;;;10.57;5.07;;;4.70;99.90;;;;;;4123352;28;20049;-71
2021/01/13 09:37:27;;;;;;;15.98;5.85;;;4.90;99.90;;;;;;4132242;28;20060;-71
2021/01/13 09:39:38;;;;;;;15.05;5.43;;;5.00;99.90;;;;;;4119631;28;20117;-71
2021/01/13 09:41:41;;;;;;;12.35;4.93;;;5.20;99.90;;;;;;4121333;28;20031;-71
2021/01/13 09:43:46;;;;;;;;;;;5.30;99.90;;;;;;4127519;28;20042;-71
2021/01/13 09:45:47;;;;;;;14.40;5.25;;;5.40;99.90;;;;;;4122821;28;20017;-72
2021/01/13 09:47:48;;;;;;;16.70;5.68;;;5.50;99.90;;;;;;4139209;28;20555;-71
2021/01/13 09:49:49;;;;;;;11.77;4.78;;;5.40;99.90;;;;;;4127277;28;20031;-71
2021/01/13 09:51:50;;;;;;;13.52;5.55;;;5.50;99.90;;;;;;4123772;28;20365;-71
2021/01/13 09:53:53;;;;;;;13.40;5.80;;;5.50;99.90;;;;;;4128993;28;20212;-71
2021/01/13 09:56:00;;;;;;;18.33;6.10;;;5.40;99.90;;;;;;4124874;28;20022;-71
2021/01/13 09:58:40;;;;;;;11.55;5.03;;;5.40;99.90;;;;;;4133600;28;20034;-71
2021/01/13 10:00:41;;;;;;;14.77;5.43;;;5.40;99.90;;;;;;4139749;28;20053;-71
2021/01/13 10:02:47;;;;;;;12.60;5.78;;;5.40;99.90;;;;;;4124758;28;20054;-71
2021/01/13 10:04:50;;;;;;;18.83;5.88;;;5.40;99.90;;;;;;4137001;28;20366;-71
2021/01/13 10:07:01;;;;;;;20.27;6.80;;;5.40;99.90;;;;;;4132213;28;20494;-71
2021/01/13 10:09:09;;;;;;;12.27;5.70;;;5.30;99.90;;;;;;4130291;28;20030;-71
2021/01/13 10:11:11;;;;;;;10.68;5.65;;;5.30;99.90;;;;;;4121210;28;20039;-72
2021/01/13 10:13:15;;;;;;;14.27;6.32;;;5.30;99.90;;;;;;4130318;28;20030;-71
2021/01/13 10:15:16;;;;;;;14.30;6.75;;;5.20;99.90;;;;;;4129383;28;20083;-71
2021/01/13 10:17:26;;;;;;;12.05;6.22;;;5.30;99.90;;;;;;4147550;28;20137;-71
2021/01/13 10:19:28;;;;;;;15.73;7.20;;;5.30;99.90;;;;;;4126749;28;20039;-71
2021/01/13 10:21:41;;;;;;;16.02;6.97;;;5.20;99.90;;;;;;4129742;28;20490;-71
2021/01/13 10:23:43;;;;;;;18.85;8.23;;;5.20;99.90;;;;;;4138410;28;20038;-72
2021/01/13 10:25:44;;;;;;;16.88;7.32;;;5.20;99.90;;;;;;4141826;28;20030;-71
2021/01/13 10:27:45;;;;;;;14.82;7.45;;;5.10;99.90;;;;;;4138075;28;20030;-71
2021/01/13 10:29:47;;;;;;;17.58;8.18;;;5.10;99.90;;;;;;4137054;28;20534;-71
2021/01/13 10:31:48;;;;;;;16.17;7.70;;;5.10;99.90;;;;;;4142893;28;20514;-71
2021/01/13 10:33:52;;;;;;;14.18;7.57;;;5.10;99.90;;;;;;4145586;28;20042;-71
2021/01/13 10:35:53;;;;;;;17.08;8.65;;;5.00;99.90;;;;;;4143822;28;20041;-71
2021/01/13 10:37:57;;;;;;;14.98;8.52;;;5.00;99.90;;;;;;4140972;28;20053;-71
2021/01/13 10:40:08;;;;;;;17.75;8.43;;;4.90;99.90;;;;;;4138109;28;20570;-71
2021/01/13 10:42:09;;;;;;;20.08;9.15;;;5.00;99.90;;;;;;4138273;28;20042;-71
2021/01/13 10:44:28;;;;;;;24.00;9.65;;;5.00;99.90;;;;;;4150497;28;20046;-71
2021/01/13 10:46:43;;;;;;;24.38;8.55;;;5.00;99.90;;;;;;4142718;28;20375;-71
2021/01/13 10:48:48;;;;;;;15.95;7.97;;;5.00;99.90;;;;;;4142224;28;20040;-71
2021/01/13 10:50:51;;;;;;;18.38;8.32;;;5.10;99.90;;;;;;4141641;28;20478;-71
2021/01/13 10:52:54;;;;;;;17.58;8.05;;;5.10;99.90;;;;;;4141461;28;20422;-71
2021/01/13 10:54:59;;;;;;;20.30;8.13;;;5.10;99.90;;;;;;4124247;28;20046;-71
2021/01/13 10:57:10;;;;;;;16.95;8.93;;;5.10;99.90;;;;;;4126884;28;20048;-71
2021/01/13 10:59:17;;;;;;;12.52;8.00;;;5.10;99.90;;;;;;4148028;28;20118;-71
2021/01/13 11:01:25;;;;;;;15.25;7.55;;;5.20;99.90;;;;;;4143812;28;20029;-71
2021/01/13 11:03:32;;;;;;;15.07;7.30;;;5.20;99.90;;;;;;4145267;28;20042;-71
2021/01/13 11:05:34;;;;;;;20.33;9.15;;;5.20;99.90;;;;;;4140225;28;20037;-71
2021/01/13 11:07:47;;;;;;;15.75;8.15;;;5.20;99.90;;;;;;4142867;28;20045;-71
2021/01/13 11:09:49;;;;;;;;;;;5.20;99.90;;;;;;4135948;28;20034;-71